createdAt,value
2018-01-14T00:02:17.005Z,20.70
2018-01-14T00:04:48.051Z,21.50
2018-01-14T00:07:15.755Z,15.97
2018-01-14T00:09:46.909Z,16.83
2018-01-14T00:12:15.717Z,14.53
2018-01-14T00:14:43.435Z,18.23
2018-01-14T00:17:24.573Z,15.43
2018-01-14T00:19:52.263Z,14.10
2018-01-14T00:22:19.939Z,15.13
2018-01-14T00:24:47.606Z,14.57
2018-01-14T00:27:16.307Z,21.20
2018-01-14T00:29:44.061Z,16.00
2018-01-14T00:32:11.743Z,16.67
2018-01-14T00:34:38.455Z,14.37
2018-01-14T00:37:06.197Z,15.57
2018-01-14T00:39:33.945Z,16.47
2018-01-14T00:42:00.641Z,15.97
2018-01-14T00:44:29.340Z,17.07
2018-01-14T00:46:58.031Z,14.87
2018-01-14T00:49:24.769Z,16.23
2018-01-14T00:51:52.479Z,16.13
2018-01-14T00:54:21.182Z,16.47
2018-01-14T00:56:47.887Z,15.87
2018-01-14T00:59:17.625Z,17.13
2018-01-14T01:01:45.583Z,14.03
2018-01-14T01:04:12.275Z,15.17
2018-01-14T01:06:39.960Z,14.73
2018-01-14T01:09:08.725Z,16.07
2018-01-14T01:11:36.442Z,14.37
2018-01-14T01:14:03.131Z,13.53
2018-01-14T01:16:31.855Z,13.90
2018-01-14T01:18:59.523Z,14.23
2018-01-14T01:21:31.819Z,15.27
2018-01-14T01:23:58.502Z,13.80
2018-01-14T01:26:27.979Z,15.03
2018-01-14T01:28:54.743Z,13.17
2018-01-14T01:31:26.131Z,13.30
2018-01-14T01:33:55.004Z,13.67
2018-01-14T01:36:28.014Z,13.00
2018-01-14T01:38:56.763Z,13.17
2018-01-14T01:41:23.527Z,11.03
2018-01-14T01:43:54.438Z,13.47
2018-01-14T01:46:23.133Z,13.27
2018-01-14T01:48:49.864Z,12.97
2018-01-14T01:51:17.617Z,12.47
2018-01-14T01:53:45.334Z,11.93
2018-01-14T01:56:13.981Z,12.10
2018-01-14T01:58:42.155Z,11.70
2018-01-14T02:01:13.646Z,13.13
2018-01-14T02:03:40.396Z,12.17
2018-01-14T02:06:09.049Z,12.27
2018-01-14T02:08:37.808Z,13.30
2018-01-14T02:11:05.503Z,12.57
2018-01-14T02:13:34.227Z,13.73
2018-01-14T02:16:02.909Z,13.97
2018-01-14T02:18:36.206Z,13.73
2018-01-14T02:21:04.897Z,13.20
2018-01-14T02:23:31.616Z,13.57
2018-01-14T02:26:01.533Z,13.87
2018-01-14T02:28:28.226Z,12.40
2018-01-14T02:30:57.136Z,14.50
2018-01-14T02:33:23.921Z,14.10
2018-01-14T02:35:54.311Z,13.53
2018-01-14T02:38:22.033Z,13.50
2018-01-14T02:40:48.759Z,13.87
2018-01-14T02:43:16.459Z,14.43
2018-01-14T02:45:43.169Z,14.83
2018-01-14T02:48:13.915Z,15.33
2018-01-14T02:50:41.615Z,13.80
2018-01-14T02:53:09.351Z,14.43
2018-01-14T02:55:41.117Z,13.97
2018-01-14T02:58:08.809Z,14.20
2018-01-14T03:00:35.547Z,14.70
2018-01-14T03:03:03.187Z,14.43
2018-01-14T03:05:30.867Z,14.53
2018-01-14T03:08:02.305Z,13.33
2018-01-14T03:10:31.067Z,12.20
2018-01-14T03:13:03.574Z,12.27
2018-01-14T03:15:31.243Z,12.93
2018-01-14T03:17:59.931Z,13.60
2018-01-14T03:20:26.609Z,13.90
2018-01-14T03:22:54.271Z,12.53
2018-01-14T03:25:21.894Z,13.03
2018-01-14T03:27:53.079Z,11.30
2018-01-14T03:30:19.833Z,10.77
2018-01-14T03:32:47.567Z,9.97
2018-01-14T03:35:14.326Z,12.33
2018-01-14T03:37:41.109Z,11.33
2018-01-14T03:40:09.735Z,10.93
2018-01-14T03:42:36.428Z,10.70
2018-01-14T03:45:03.135Z,10.90
2018-01-14T03:47:30.793Z,11.57
2018-01-14T03:50:01.636Z,11.90
2018-01-14T03:52:29.353Z,11.07
2018-01-14T03:54:57.990Z,12.40
2018-01-14T03:57:25.651Z,10.93
2018-01-14T03:59:54.418Z,11.63
2018-01-14T04:02:23.143Z,9.80
2018-01-14T04:04:49.821Z,11.83
2018-01-14T04:07:17.359Z,10.33
2018-01-14T04:09:44.103Z,11.10
2018-01-14T04:12:12.765Z,10.20
2018-01-14T04:14:40.459Z,8.77
2018-01-14T04:17:07.201Z,10.80
2018-01-14T04:19:38.869Z,9.97
2018-01-14T04:22:05.647Z,9.60
2018-01-14T04:24:33.353Z,11.10
2018-01-14T04:27:01.067Z,10.17
2018-01-14T04:29:28.813Z,10.83
2018-01-14T04:31:55.525Z,11.07
2018-01-14T04:34:23.195Z,10.27
2018-01-14T04:36:50.009Z,10.33
2018-01-14T04:39:17.721Z,11.07
2018-01-14T04:41:46.403Z,9.60
2018-01-14T04:44:14.141Z,11.83
2018-01-14T04:46:41.845Z,12.10
2018-01-14T04:49:18.275Z,12.50
2018-01-14T04:51:45.987Z,11.57
2018-01-14T04:54:14.675Z,12.53
2018-01-14T04:56:46.473Z,12.23
2018-01-14T05:02:11.869Z,13.30
2018-01-14T05:04:44.543Z,12.83
2018-01-14T05:07:18.281Z,13.53
2018-01-14T05:10:02.841Z,14.03
2018-01-14T05:12:29.583Z,13.93
2018-01-14T05:14:57.241Z,13.43
2018-01-14T05:17:23.935Z,12.57
2018-01-14T05:19:50.633Z,12.73
2018-01-14T05:22:19.306Z,12.53
2018-01-14T05:24:46.003Z,12.63
2018-01-14T05:27:12.754Z,11.43
2018-01-14T05:29:44.971Z,14.33
2018-01-14T05:32:12.717Z,15.50
2018-01-14T05:34:41.459Z,14.00
2018-01-14T05:37:08.193Z,13.93
2018-01-14T05:39:35.871Z,16.30
2018-01-14T05:42:02.578Z,15.30
2018-01-14T05:44:30.245Z,15.40
2018-01-14T05:47:00.378Z,15.40
2018-01-14T05:49:29.083Z,14.43
2018-01-14T05:51:55.801Z,12.87
2018-01-14T05:54:24.519Z,16.37
2018-01-14T05:56:55.449Z,15.50
2018-01-14T05:59:23.116Z,15.20
2018-01-14T06:01:49.961Z,14.27
2018-01-14T06:04:17.619Z,13.93
2018-01-14T06:06:45.290Z,15.10
2018-01-14T06:09:12.987Z,14.73
2018-01-14T06:11:39.686Z,14.30
2018-01-14T06:14:07.360Z,14.70
2018-01-14T06:16:36.058Z,14.77
2018-01-14T06:19:07.828Z,17.30
2018-01-14T06:21:35.487Z,15.50
2018-01-14T06:24:04.208Z,16.03
2018-01-14T06:26:31.944Z,15.67
2018-01-14T06:29:03.144Z,15.40
2018-01-14T06:31:30.912Z,14.37
2018-01-14T06:33:57.618Z,14.37
2018-01-14T06:36:25.377Z,16.03
2018-01-14T06:38:52.410Z,15.37
2018-01-14T06:41:20.088Z,15.00
2018-01-14T06:43:47.811Z,15.00
2018-01-14T06:46:15.560Z,15.93
2018-01-14T06:48:44.252Z,17.30
2018-01-14T06:51:12.000Z,17.13
2018-01-14T06:53:39.096Z,17.13
2018-01-14T06:56:07.851Z,17.23
2018-01-14T07:01:22.010Z,15.90
2018-01-14T07:03:51.961Z,16.50
2018-01-14T07:06:18.709Z,15.57
2018-01-14T07:08:45.430Z,15.70
2018-01-14T07:11:13.130Z,16.37
2018-01-14T07:13:40.827Z,16.40
2018-01-14T07:16:08.327Z,16.00
2018-01-14T07:18:38.392Z,16.70
2018-01-14T07:21:09.164Z,17.10
2018-01-14T07:23:37.875Z,19.43
2018-01-14T07:26:05.506Z,16.47
2018-01-14T07:28:37.846Z,15.47
2018-01-14T07:31:04.535Z,15.30
2018-01-14T07:33:33.231Z,15.70
2018-01-14T07:35:59.944Z,14.40
2018-01-14T07:38:27.640Z,15.70
2018-01-14T07:41:03.805Z,15.30
2018-01-14T07:43:31.475Z,15.93
2018-01-14T07:45:58.174Z,16.50
2018-01-14T07:48:26.187Z,15.43
2018-01-14T07:50:52.879Z,16.90
2018-01-14T07:53:29.008Z,16.83
2018-01-14T07:55:55.735Z,17.23
2018-01-14T07:58:24.422Z,15.97
2018-01-14T08:00:53.382Z,14.73
2018-01-14T08:03:20.068Z,15.03
2018-01-14T08:05:55.832Z,13.77
2018-01-14T08:08:24.735Z,15.07
2018-01-14T08:10:52.397Z,16.57
2018-01-14T08:13:19.128Z,14.50
2018-01-14T08:15:45.828Z,18.53
2018-01-14T08:18:13.580Z,16.00
2018-01-14T08:20:42.247Z,15.53
2018-01-14T08:23:09.035Z,15.60
2018-01-14T08:25:37.814Z,15.03
2018-01-14T08:28:05.930Z,14.80
2018-01-14T08:30:32.601Z,15.73
2018-01-14T08:33:01.274Z,14.53
2018-01-14T08:35:28.072Z,15.63
2018-01-14T08:38:01.056Z,16.13
2018-01-14T08:40:28.933Z,13.20
2018-01-14T08:42:55.632Z,14.60
2018-01-14T08:45:22.320Z,15.10
2018-01-14T08:47:49.038Z,12.80
2018-01-14T08:50:19.862Z,12.37
2018-01-14T08:52:46.885Z,14.07
2018-01-14T08:55:13.650Z,12.23
2018-01-14T08:57:41.316Z,12.00
2018-01-14T09:00:09.847Z,13.43
2018-01-14T09:02:36.628Z,13.20
2018-01-14T09:05:03.315Z,14.07
2018-01-14T09:07:30.010Z,13.83
2018-01-14T09:10:11.290Z,12.53
2018-01-14T09:12:37.990Z,12.80
2018-01-14T09:15:04.739Z,13.80
2018-01-14T09:17:31.481Z,10.73
2018-01-14T09:19:59.425Z,12.47
2018-01-14T09:22:37.134Z,13.37
2018-01-14T09:25:03.812Z,14.77
2018-01-14T09:27:30.822Z,14.13
2018-01-14T09:29:58.539Z,13.07
2018-01-14T09:32:25.236Z,11.53
2018-01-14T09:34:51.931Z,12.00
2018-01-14T09:37:18.640Z,12.73
2018-01-14T09:39:45.326Z,11.03
2018-01-14T09:42:12.032Z,12.77
2018-01-14T09:44:38.742Z,13.13
2018-01-14T09:47:05.467Z,12.53
2018-01-14T09:49:32.170Z,12.33
2018-01-14T09:51:58.904Z,11.67
2018-01-14T09:54:25.604Z,12.17
2018-01-14T09:56:52.300Z,12.73
2018-01-14T09:59:19.004Z,10.97
2018-01-14T10:01:45.689Z,11.93
2018-01-14T10:04:13.334Z,12.97
2018-01-14T10:06:40.060Z,13.30
2018-01-14T10:09:06.750Z,13.33
2018-01-14T10:11:33.440Z,11.37
2018-01-14T10:14:00.168Z,13.53
2018-01-14T10:16:26.876Z,13.37
2018-01-14T10:18:53.580Z,10.90
2018-01-14T10:21:25.726Z,12.37
2018-01-14T10:23:52.418Z,13.67
2018-01-14T10:26:19.570Z,12.43
2018-01-14T10:28:46.266Z,14.87
2018-01-14T10:31:13.982Z,13.40
2018-01-14T10:33:41.661Z,13.73
2018-01-14T10:36:08.462Z,13.07
2018-01-14T10:38:35.316Z,10.97
2018-01-14T10:41:08.912Z,12.27
2018-01-14T10:43:36.490Z,13.80
2018-01-14T10:46:04.098Z,11.40
2018-01-14T10:48:30.856Z,11.53
2018-01-14T10:50:57.534Z,13.03
2018-01-14T10:53:24.264Z,12.50
2018-01-14T10:55:50.984Z,13.93
2018-01-14T10:58:17.685Z,11.47
2018-01-14T11:00:50.043Z,13.57
2018-01-14T11:03:16.774Z,13.67
2018-01-14T11:05:43.474Z,12.63
2018-01-14T11:08:10.159Z,11.93
2018-01-14T11:10:36.884Z,12.93
2018-01-14T11:13:03.572Z,12.43
2018-01-14T11:15:30.901Z,13.03
2018-01-14T11:17:57.625Z,14.20
2018-01-14T11:23:11.342Z,11.73
2018-01-14T11:25:41.249Z,12.27
2018-01-14T11:28:08.884Z,10.80
2018-01-14T11:30:35.615Z,12.87
2018-01-14T11:33:02.740Z,12.10
2018-01-14T11:35:29.482Z,12.00
2018-01-14T11:37:57.310Z,12.97
2018-01-14T11:40:24.049Z,12.43
2018-01-14T11:42:51.830Z,13.40
2018-01-14T11:45:18.546Z,14.17
2018-01-14T11:47:45.327Z,15.60
2018-01-14T11:50:12.071Z,14.53
2018-01-14T11:52:38.792Z,13.50
2018-01-14T11:55:05.544Z,14.63
2018-01-14T11:57:32.248Z,12.87
2018-01-14T11:59:58.980Z,13.80
2018-01-14T12:02:25.739Z,14.33
2018-01-14T12:04:52.438Z,14.90
2018-01-14T12:07:19.156Z,16.57
2018-01-14T12:09:45.848Z,14.47
2018-01-14T12:12:12.549Z,14.47
2018-01-14T12:14:39.312Z,14.27
2018-01-14T12:17:05.998Z,15.40
2018-01-14T12:19:34.933Z,15.13
2018-01-14T12:22:02.644Z,14.63
2018-01-14T12:24:29.356Z,15.33
2018-01-14T12:26:56.054Z,16.33
2018-01-14T12:29:22.836Z,16.70
2018-01-14T12:31:52.968Z,16.13
2018-01-14T12:34:35.263Z,16.87
2018-01-14T12:37:01.982Z,16.30
2018-01-14T12:39:28.751Z,16.23
2018-01-14T12:41:56.163Z,15.90
2018-01-14T12:44:22.874Z,17.00
2018-01-14T12:46:50.292Z,16.30
2018-01-14T12:49:17.046Z,17.70
2018-01-14T12:51:43.734Z,16.00
2018-01-14T12:54:10.448Z,14.87
2018-01-14T12:56:38.050Z,18.20
2018-01-14T12:59:04.742Z,14.40
2018-01-14T13:01:31.449Z,16.33
2018-01-14T13:03:58.862Z,16.63
2018-01-14T13:06:33.062Z,17.50
2018-01-14T13:08:59.769Z,14.73
2018-01-14T13:11:27.896Z,18.00
2018-01-14T13:13:54.652Z,16.30
2018-01-14T13:16:21.424Z,18.03
2018-01-14T13:18:48.157Z,17.67
2018-01-14T13:21:14.854Z,16.53
2018-01-14T13:23:41.566Z,16.87
2018-01-14T13:26:11.020Z,16.57
2018-01-14T13:28:41.790Z,16.33
2018-01-14T13:31:08.486Z,18.00
2018-01-14T13:33:35.260Z,16.67
2018-01-14T13:36:03.080Z,15.53
2018-01-14T13:38:29.860Z,17.03
2018-01-14T13:40:56.574Z,16.73
2018-01-14T13:43:23.303Z,15.83
2018-01-14T13:45:49.973Z,16.77
2018-01-14T13:48:16.668Z,17.03
2018-01-14T13:50:50.465Z,15.47
2018-01-14T13:53:18.093Z,17.17
2018-01-14T13:55:47.728Z,17.37
2018-01-14T13:58:17.955Z,14.80
2018-01-14T14:00:44.663Z,15.37
2018-01-14T14:03:11.362Z,18.50
2018-01-14T14:05:40.049Z,16.10
2018-01-14T14:08:06.769Z,16.93
2018-01-14T14:10:33.493Z,16.90
2018-01-14T14:13:01.025Z,18.37
2018-01-14T14:15:28.771Z,17.57
2018-01-14T14:17:57.247Z,17.80
2018-01-14T14:20:23.961Z,19.83
2018-01-14T14:22:50.644Z,18.80
2018-01-14T14:25:17.367Z,18.23
2018-01-14T14:27:44.068Z,16.47
2018-01-14T14:30:10.780Z,18.57
2018-01-14T14:32:39.389Z,17.77
2018-01-14T14:35:06.147Z,16.87
2018-01-14T14:37:32.847Z,17.93
2018-01-14T14:39:59.548Z,17.10
2018-01-14T14:42:32.204Z,14.50
2018-01-14T14:44:58.955Z,16.60
2018-01-14T14:47:27.780Z,15.50
2018-01-14T14:49:54.524Z,15.87
2018-01-14T14:52:21.395Z,15.50
2018-01-14T14:54:58.224Z,18.53
2018-01-14T14:57:25.361Z,16.80
2018-01-14T14:59:52.259Z,16.73
2018-01-14T15:02:18.971Z,17.70
2018-01-14T15:04:45.718Z,20.00
2018-01-14T15:07:12.466Z,18.40
2018-01-14T15:09:39.395Z,19.50
2018-01-14T15:12:15.315Z,20.40
2018-01-14T15:14:42.019Z,20.10
2018-01-14T15:17:12.065Z,21.50
2018-01-14T15:19:38.781Z,20.80
2018-01-14T15:22:05.495Z,20.30
2018-01-14T15:24:32.545Z,21.03
2018-01-14T15:26:59.347Z,21.60
2018-01-14T15:29:26.035Z,21.40
2018-01-14T15:31:53.608Z,20.43
2018-01-14T15:34:20.340Z,19.93
2018-01-14T15:36:47.315Z,23.40
2018-01-14T15:39:14.953Z,23.23
2018-01-14T15:41:46.729Z,22.33
2018-01-14T15:44:13.445Z,21.83
2018-01-14T15:46:40.119Z,21.13
2018-01-14T15:49:07.415Z,25.83
2018-01-14T15:51:35.260Z,22.27
2018-01-14T15:54:02.277Z,26.67
2018-01-14T15:56:28.992Z,26.60
2018-01-14T15:58:55.679Z,25.40
2018-01-14T16:01:22.372Z,26.87
2018-01-14T16:03:49.287Z,19.53
2018-01-14T16:06:16.775Z,23.07
2018-01-14T16:08:45.253Z,24.93
2018-01-14T16:11:11.997Z,25.77
2018-01-14T16:13:39.593Z,25.70
2018-01-14T16:16:06.279Z,26.70
2018-01-14T16:18:33.171Z,25.53
2018-01-14T16:21:01.465Z,23.33
2018-01-14T16:23:31.411Z,23.40
2018-01-14T16:25:58.125Z,25.53
2018-01-14T16:28:24.819Z,25.53
2018-01-14T16:30:51.494Z,25.43
2018-01-14T16:33:18.479Z,25.67
2018-01-14T16:35:46.234Z,26.67
2018-01-14T16:38:13.823Z,25.97
2018-01-14T16:40:40.552Z,23.00
2018-01-14T16:43:07.760Z,23.97
2018-01-14T16:45:34.749Z,22.93
2018-01-14T16:48:02.687Z,21.60
2018-01-14T16:50:29.417Z,25.37
2018-01-14T16:52:56.129Z,22.90
2018-01-14T16:55:22.910Z,20.67
2018-01-14T16:57:50.450Z,21.03
2018-01-14T17:00:17.177Z,22.53
2018-01-14T17:02:43.968Z,22.10
2018-01-14T17:05:10.661Z,22.87
2018-01-14T17:07:37.373Z,21.73
2018-01-14T17:10:04.126Z,23.47
2018-01-14T17:12:30.805Z,22.77
2018-01-14T17:14:57.499Z,24.23
2018-01-14T17:17:24.356Z,21.90
2018-01-14T17:19:51.037Z,24.77
2018-01-14T17:22:17.722Z,22.37
2018-01-14T17:24:44.507Z,21.03
2018-01-14T17:27:11.198Z,23.13
2018-01-14T17:29:39.306Z,22.53
2018-01-14T17:32:06.042Z,22.43
2018-01-14T17:34:32.723Z,23.27
2018-01-14T17:36:59.456Z,23.50
2018-01-14T17:39:26.623Z,23.53
2018-01-14T17:41:53.319Z,24.33
2018-01-14T17:44:19.995Z,25.17
2018-01-14T17:46:46.736Z,26.53
2018-01-14T17:49:13.419Z,25.83
2018-01-14T17:51:40.125Z,27.37
2018-01-14T17:54:06.892Z,28.23
2018-01-14T17:56:33.624Z,27.17
2018-01-14T17:59:00.332Z,26.87
2018-01-14T18:01:27.086Z,29.97
2018-01-14T18:03:53.819Z,28.47
2018-01-14T18:06:20.530Z,28.07
2018-01-14T18:08:47.230Z,27.27
2018-01-14T18:11:13.922Z,27.00
2018-01-14T18:13:44.771Z,27.13
2018-01-14T18:16:11.564Z,26.93
2018-01-14T18:18:38.245Z,28.50
2018-01-14T18:23:51.035Z,27.93
2018-01-14T18:26:17.750Z,27.03
2018-01-14T18:28:44.431Z,25.57
2018-01-14T18:31:11.980Z,26.80
2018-01-14T18:33:38.716Z,26.43
2018-01-14T18:36:10.364Z,25.83
2018-01-14T18:38:37.101Z,25.47
2018-01-14T18:41:03.829Z,26.27
2018-01-14T18:43:30.972Z,25.63
2018-01-14T18:45:57.875Z,28.07
2018-01-14T18:48:24.616Z,25.77
2018-01-14T18:50:52.673Z,29.33
2018-01-14T18:53:19.361Z,30.23
2018-01-14T18:55:48.501Z,27.77
2018-01-14T18:58:18.206Z,28.10
2018-01-14T19:00:44.990Z,29.13
2018-01-14T19:03:11.699Z,31.03
2018-01-14T19:05:38.401Z,30.30
2018-01-14T19:08:05.096Z,29.10
2018-01-14T19:10:32.512Z,30.03
2018-01-14T19:12:59.197Z,30.70
2018-01-14T19:18:05.910Z,31.37
2018-01-14T19:20:32.595Z,32.27
2018-01-14T19:22:59.343Z,32.10
2018-01-14T19:25:26.063Z,33.47
2018-01-14T19:27:53.177Z,31.50
2018-01-14T19:30:19.937Z,31.67
2018-01-14T19:32:46.675Z,36.67
2018-01-14T19:35:13.367Z,35.87
2018-01-14T19:37:40.051Z,34.97
2018-01-14T19:40:06.783Z,36.60
2018-01-14T19:42:33.757Z,39.80
2018-01-14T19:45:00.461Z,37.00
2018-01-14T19:47:27.227Z,39.80
2018-01-14T19:49:53.980Z,37.97
2018-01-14T19:52:20.680Z,36.43
2018-01-14T19:54:47.470Z,35.37
2018-01-14T19:57:14.255Z,35.67
2018-01-14T19:59:40.979Z,36.00
2018-01-14T20:02:07.885Z,37.43
2018-01-14T20:04:34.832Z,37.60
2018-01-14T20:07:01.579Z,38.50
2018-01-14T20:09:28.335Z,43.60
2018-01-14T20:11:56.703Z,51.20
2018-01-14T20:14:23.473Z,52.77
2018-01-14T20:16:50.251Z,52.13
2018-01-14T20:19:17.311Z,49.33
2018-01-14T20:21:44.062Z,47.00
2018-01-14T20:24:10.808Z,46.43
2018-01-14T20:26:37.573Z,46.97
2018-01-14T20:29:04.305Z,46.73
2018-01-14T20:31:31.037Z,43.63
2018-01-14T20:33:57.777Z,46.50
2018-01-14T20:36:24.869Z,46.30
2018-01-14T20:38:51.623Z,43.03
2018-01-14T20:41:18.321Z,46.17
2018-01-14T20:43:45.673Z,49.37
2018-01-14T20:46:12.480Z,51.17
2018-01-14T20:48:39.221Z,48.10
2018-01-14T20:51:06.272Z,49.80
2018-01-14T20:53:33.022Z,56.63
2018-01-14T20:55:59.756Z,56.37
2018-01-14T20:58:26.499Z,46.13
2018-01-14T21:00:53.310Z,49.33
2018-01-14T21:03:20.085Z,47.00
2018-01-14T21:05:46.771Z,46.13
2018-01-14T21:08:13.499Z,42.27
2018-01-14T21:10:40.700Z,41.70
2018-01-14T21:13:07.390Z,41.97
2018-01-14T21:15:34.192Z,40.73
2018-01-14T21:18:01.109Z,41.17
2018-01-14T21:20:27.805Z,42.93
2018-01-14T21:22:55.570Z,43.43
2018-01-14T21:25:22.271Z,45.07
2018-01-14T21:27:49.015Z,48.53
2018-01-14T21:30:15.764Z,43.33
2018-01-14T21:32:42.463Z,51.00
2018-01-14T21:35:09.199Z,48.53
2018-01-14T21:37:35.958Z,50.87
2018-01-14T21:40:02.990Z,49.83
2018-01-14T21:42:29.764Z,49.73
2018-01-14T21:44:56.509Z,51.97
2018-01-14T21:47:23.864Z,48.10
2018-01-14T21:49:50.570Z,46.33
2018-01-14T21:52:17.266Z,43.70
2018-01-14T21:54:43.955Z,49.40
2018-01-14T21:57:10.667Z,44.50
2018-01-14T21:59:37.448Z,45.87
2018-01-14T22:02:04.665Z,44.97
2018-01-14T22:04:31.352Z,49.27
2018-01-14T22:06:58.092Z,47.07
2018-01-14T22:09:25.770Z,48.47
2018-01-14T22:11:52.469Z,47.73
2018-01-14T22:14:19.196Z,49.43
2018-01-14T22:16:46.905Z,44.47
2018-01-14T22:19:13.589Z,45.27
2018-01-14T22:21:40.291Z,48.97
2018-01-14T22:24:07.008Z,48.23
2018-01-14T22:26:33.710Z,49.03
2018-01-14T22:29:02.387Z,48.00
2018-01-14T22:31:29.993Z,46.80
2018-01-14T22:33:57.680Z,46.97
2018-01-14T22:36:24.420Z,48.60
2018-01-14T22:38:52.088Z,46.80
2018-01-14T22:41:18.796Z,47.50
2018-01-14T22:43:46.511Z,44.50
2018-01-14T22:46:14.209Z,45.37
2018-01-14T22:48:40.962Z,43.73
2018-01-14T22:51:08.695Z,44.40
2018-01-14T22:53:35.393Z,41.60
2018-01-14T22:56:03.090Z,39.07
2018-01-14T22:58:29.797Z,38.07
2018-01-14T23:00:57.530Z,37.40
2018-01-14T23:03:26.317Z,38.57
2018-01-14T23:05:53.033Z,36.70
2018-01-14T23:08:19.726Z,39.67
2018-01-14T23:10:50.509Z,36.53
2018-01-14T23:13:22.204Z,33.20
2018-01-14T23:15:48.924Z,33.20
2018-01-14T23:18:15.615Z,33.30
2018-01-14T23:20:43.365Z,33.67
2018-01-14T23:23:10.280Z,33.40
2018-01-14T23:25:45.678Z,33.00
2018-01-14T23:28:13.168Z,32.23
2018-01-14T23:30:39.928Z,31.10
2018-01-14T23:33:06.713Z,32.73
2018-01-14T23:35:33.709Z,28.40
2018-01-14T23:38:00.395Z,29.23
2018-01-14T23:40:27.144Z,28.60
2018-01-14T23:43:09.382Z,31.60
2018-01-14T23:45:37.146Z,28.97
2018-01-14T23:48:07.128Z,28.90
2018-01-14T23:50:33.846Z,29.63
2018-01-14T23:53:01.594Z,28.77
2018-01-14T23:55:28.283Z,26.60
2018-01-14T23:57:59.050Z,25.00
